Terminal Aerodrome Forecast
Issued by NWS Sterling, VA

Current Version | Previous Version | Text Only | Print | Product List | Glossary Off
Versions: 1 2 3 4 5 6 7 8 9 10 11 12 13 14

521
FTUS41 KLWX 201720
TAFMRB
TAF
KMRB 201720Z 2018/2118 25009KT P6SM FEW150 FEW250
     FM202200 23005KT P6SM FEW200 FEW250
     FM211700 19009KT P6SM FEW200 FEW250=

USA.gov is the U.S. government's official web portal to all federal, state and local government web resources and services.